sensor_id;sensor_type;location;lat;lon;timestamp;P1;durP1;ratioP1;P2;durP2;ratioP2
4959;SDS011;2495;48.200;11.532;2023-06-22T00:00:33;1.20;;;0.50;;
4959;SDS011;2495;48.200;11.532;2023-06-22T00:10:45;1.50;;;0.70;;
4959;SDS011;2495;48.200;11.532;2023-06-22T00:15:46;1.20;;;0.50;;
4959;SDS011;2495;48.200;11.532;2023-06-22T00:20:47;2.03;;;1.57;;
4959;SDS011;2495;48.200;11.532;2023-06-22T00:25:49;1.30;;;0.50;;
4959;SDS011;2495;48.200;11.532;2023-06-22T00:30:50;1.20;;;0.60;;
4959;SDS011;2495;48.200;11.532;2023-06-22T00:35:51;1.20;;;0.60;;
4959;SDS011;2495;48.200;11.532;2023-06-22T00:40:52;1.20;;;0.60;;
4959;SDS011;2495;48.200;11.532;2023-06-22T00:45:55;1.20;;;0.60;;
4959;SDS011;2495;48.200;11.532;2023-06-22T00:50:55;1.20;;;0.60;;
4959;SDS011;2495;48.200;11.532;2023-06-22T00:55:56;1.20;;;0.50;;
4959;SDS011;2495;48.200;11.532;2023-06-22T01:00:57;1.20;;;0.50;;
4959;SDS011;2495;48.200;11.532;2023-06-22T01:06:02;1.40;;;0.90;;
4959;SDS011;2495;48.200;11.532;2023-06-22T01:11:12;1.20;;;0.50;;
4959;SDS011;2495;48.200;11.532;2023-06-22T01:16:15;1.20;;;0.50;;
4959;SDS011;2495;48.200;11.532;2023-06-22T01:21:19;2.23;;;1.03;;
4959;SDS011;2495;48.200;11.532;2023-06-22T01:26:25;1.20;;;0.50;;
4959;SDS011;2495;48.200;11.532;2023-06-22T01:31:27;1.20;;;0.50;;
4959;SDS011;2495;48.200;11.532;2023-06-22T01:36:27;1.20;;;0.50;;
4959;SDS011;2495;48.200;11.532;2023-06-22T01:41:29;1.17;;;0.50;;
4959;SDS011;2495;48.200;11.532;2023-06-22T01:46:30;1.20;;;0.70;;
4959;SDS011;2495;48.200;11.532;2023-06-22T01:51:31;1.10;;;0.50;;
4959;SDS011;2495;48.200;11.532;2023-06-22T01:56:33;1.20;;;0.60;;
4959;SDS011;2495;48.200;11.532;2023-06-22T02:01:46;1.40;;;0.90;;
4959;SDS011;2495;48.200;11.532;2023-06-22T02:06:45;1.20;;;0.50;;
4959;SDS011;2495;48.200;11.532;2023-06-22T02:11:46;1.20;;;0.50;;
4959;SDS011;2495;48.200;11.532;2023-06-22T02:16:48;1.20;;;0.60;;
4959;SDS011;2495;48.200;11.532;2023-06-22T02:21:49;1.30;;;0.80;;
4959;SDS011;2495;48.200;11.532;2023-06-22T02:26:51;1.20;;;0.60;;
4959;SDS011;2495;48.200;11.532;2023-06-22T02:31:52;1.13;;;0.57;;
4959;SDS011;2495;48.200;11.532;2023-06-22T02:36:54;1.30;;;0.77;;
4959;SDS011;2495;48.200;11.532;2023-06-22T02:41:55;1.20;;;0.73;;
4959;SDS011;2495;48.200;11.532;2023-06-22T02:46:58;1.20;;;0.60;;
4959;SDS011;2495;48.200;11.532;2023-06-22T02:51:58;1.20;;;0.60;;
4959;SDS011;2495;48.200;11.532;2023-06-22T02:57:00;1.20;;;0.60;;
4959;SDS011;2495;48.200;11.532;2023-06-22T03:02:01;1.17;;;0.50;;
4959;SDS011;2495;48.200;11.532;2023-06-22T03:07:02;2.73;;;1.43;;
4959;SDS011;2495;48.200;11.532;2023-06-22T03:12:04;1.10;;;0.50;;
4959;SDS011;2495;48.200;11.532;2023-06-22T03:17:05;1.20;;;0.70;;
4959;SDS011;2495;48.200;11.532;2023-06-22T03:22:07;1.20;;;0.60;;
4959;SDS011;2495;48.200;11.532;2023-06-22T03:27:09;1.10;;;0.60;;
4959;SDS011;2495;48.200;11.532;2023-06-22T03:32:10;1.10;;;0.50;;
4959;SDS011;2495;48.200;11.532;2023-06-22T03:37:13;1.10;;;0.50;;
4959;SDS011;2495;48.200;11.532;2023-06-22T03:42:13;1.20;;;0.60;;
4959;SDS011;2495;48.200;11.532;2023-06-22T03:47:14;1.20;;;0.70;;
4959;SDS011;2495;48.200;11.532;2023-06-22T03:52:15;1.20;;;0.70;;
4959;SDS011;2495;48.200;11.532;2023-06-22T03:57:17;1.10;;;0.60;;
4959;SDS011;2495;48.200;11.532;2023-06-22T04:02:18;1.10;;;0.50;;
4959;SDS011;2495;48.200;11.532;2023-06-22T04:07:19;5.27;;;2.40;;
4959;SDS011;2495;48.200;11.532;2023-06-22T04:12:21;1.10;;;0.50;;
4959;SDS011;2495;48.200;11.532;2023-06-22T04:17:22;1.10;;;0.60;;
4959;SDS011;2495;48.200;11.532;2023-06-22T04:22:23;1.20;;;0.60;;
4959;SDS011;2495;48.200;11.532;2023-06-22T04:27:25;1.10;;;0.50;;
4959;SDS011;2495;48.200;11.532;2023-06-22T04:32:26;2.70;;;0.80;;
4959;SDS011;2495;48.200;11.532;2023-06-22T04:37:27;1.10;;;0.60;;
4959;SDS011;2495;48.200;11.532;2023-06-22T04:42:29;1.20;;;0.60;;
4959;SDS011;2495;48.200;11.532;2023-06-22T04:47:30;1.30;;;0.90;;
4959;SDS011;2495;48.200;11.532;2023-06-22T04:52:32;1.20;;;0.70;;
4959;SDS011;2495;48.200;11.532;2023-06-22T04:57:33;2.17;;;1.73;;
4959;SDS011;2495;48.200;11.532;2023-06-22T05:02:34;1.13;;;0.50;;
4959;SDS011;2495;48.200;11.532;2023-06-22T05:07:36;1.43;;;0.97;;
4959;SDS011;2495;48.200;11.532;2023-06-22T05:12:37;1.20;;;0.60;;
4959;SDS011;2495;48.200;11.532;2023-06-22T05:17:38;1.20;;;0.63;;
4959;SDS011;2495;48.200;11.532;2023-06-22T05:22:42;1.60;;;1.33;;
4959;SDS011;2495;48.200;11.532;2023-06-22T05:27:52;1.20;;;0.60;;
4959;SDS011;2495;48.200;11.532;2023-06-22T05:32:55;1.30;;;0.70;;
4959;SDS011;2495;48.200;11.532;2023-06-22T05:38:04;3.30;;;1.10;;
4959;SDS011;2495;48.200;11.532;2023-06-22T05:43:09;1.50;;;0.70;;
4959;SDS011;2495;48.200;11.532;2023-06-22T05:48:15;1.20;;;0.50;;
4959;SDS011;2495;48.200;11.532;2023-06-22T05:53:18;1.30;;;0.73;;
4959;SDS011;2495;48.200;11.532;2023-06-22T05:58:20;1.20;;;0.70;;
4959;SDS011;2495;48.200;11.532;2023-06-22T06:03:24;1.57;;;1.23;;
4959;SDS011;2495;48.200;11.532;2023-06-22T06:08:26;1.43;;;0.80;;
4959;SDS011;2495;48.200;11.532;2023-06-22T06:13:28;1.23;;;0.60;;
4959;SDS011;2495;48.200;11.532;2023-06-22T06:18:31;1.20;;;0.57;;
4959;SDS011;2495;48.200;11.532;2023-06-22T06:23:49;1.20;;;0.50;;
4959;SDS011;2495;48.200;11.532;2023-06-22T06:28:50;1.20;;;0.60;;
4959;SDS011;2495;48.200;11.532;2023-06-22T06:33:55;1.20;;;0.50;;
4959;SDS011;2495;48.200;11.532;2023-06-22T06:39:02;1.20;;;0.60;;
4959;SDS011;2495;48.200;11.532;2023-06-22T06:44:11;1.20;;;0.50;;
4959;SDS011;2495;48.200;11.532;2023-06-22T06:49:25;1.20;;;0.63;;
4959;SDS011;2495;48.200;11.532;2023-06-22T06:54:27;1.20;;;0.53;;
4959;SDS011;2495;48.200;11.532;2023-06-22T07:15:19;1.80;;;0.73;;
4959;SDS011;2495;48.200;11.532;2023-06-22T07:20:41;2.80;;;1.20;;
4959;SDS011;2495;48.200;11.532;2023-06-22T07:25:44;2.50;;;0.90;;
4959;SDS011;2495;48.200;11.532;2023-06-22T07:30:45;1.30;;;0.50;;
4959;SDS011;2495;48.200;11.532;2023-06-22T07:51:36;1.70;;;0.70;;
4959;SDS011;2495;48.200;11.532;2023-06-22T07:56:39;1.50;;;0.90;;
4959;SDS011;2495;48.200;11.532;2023-06-22T08:01:45;1.30;;;0.50;;
4959;SDS011;2495;48.200;11.532;2023-06-22T08:07:04;1.30;;;0.60;;
4959;SDS011;2495;48.200;11.532;2023-06-22T08:12:13;1.30;;;0.50;;
4959;SDS011;2495;48.200;11.532;2023-06-22T08:22:51;3.80;;;1.20;;
4959;SDS011;2495;48.200;11.532;2023-06-22T08:28:23;1.30;;;0.50;;
4959;SDS011;2495;48.200;11.532;2023-06-22T08:33:24;1.30;;;0.50;;
4959;SDS011;2495;48.200;11.532;2023-06-22T08:38:28;1.30;;;0.50;;
4959;SDS011;2495;48.200;11.532;2023-06-22T08:43:30;1.40;;;0.60;;
4959;SDS011;2495;48.200;11.532;2023-06-22T08:48:52;2.00;;;1.73;;
4959;SDS011;2495;48.200;11.532;2023-06-22T08:53:54;2.73;;;1.90;;
4959;SDS011;2495;48.200;11.532;2023-06-22T08:58:56;1.50;;;0.60;;
4959;SDS011;2495;48.200;11.532;2023-06-22T09:03:57;1.37;;;0.50;;
4959;SDS011;2495;48.200;11.532;2023-06-22T09:08:59;4.20;;;1.40;;
4959;SDS011;2495;48.200;11.532;2023-06-22T09:14:01;1.30;;;0.50;;
4959;SDS011;2495;48.200;11.532;2023-06-22T09:19:02;1.50;;;1.00;;
4959;SDS011;2495;48.200;11.532;2023-06-22T09:24:04;1.60;;;0.60;;
4959;SDS011;2495;48.200;11.532;2023-06-22T09:29:06;2.90;;;1.10;;
4959;SDS011;2495;48.200;11.532;2023-06-22T09:34:08;1.50;;;0.70;;
4959;SDS011;2495;48.200;11.532;2023-06-22T09:39:12;8.43;;;1.73;;
4959;SDS011;2495;48.200;11.532;2023-06-22T09:44:11;1.70;;;1.30;;
4959;SDS011;2495;48.200;11.532;2023-06-22T09:49:13;1.50;;;0.70;;
4959;SDS011;2495;48.200;11.532;2023-06-22T09:54:15;1.30;;;0.50;;
4959;SDS011;2495;48.200;11.532;2023-06-22T09:59:20;1.30;;;0.60;;
4959;SDS011;2495;48.200;11.532;2023-06-22T10:04:21;2.63;;;1.10;;
4959;SDS011;2495;48.200;11.532;2023-06-22T10:09:23;1.40;;;0.60;;
4959;SDS011;2495;48.200;11.532;2023-06-22T10:14:24;1.60;;;0.77;;
4959;SDS011;2495;48.200;11.532;2023-06-22T10:19:33;1.37;;;0.50;;
4959;SDS011;2495;48.200;11.532;2023-06-22T10:24:35;1.40;;;0.60;;
4959;SDS011;2495;48.200;11.532;2023-06-22T10:29:37;1.37;;;0.60;;
4959;SDS011;2495;48.200;11.532;2023-06-22T10:34:39;1.70;;;0.80;;
4959;SDS011;2495;48.200;11.532;2023-06-22T10:39:40;1.33;;;0.50;;
4959;SDS011;2495;48.200;11.532;2023-06-22T10:44:42;2.00;;;1.40;;
4959;SDS011;2495;48.200;11.532;2023-06-22T10:49:43;2.50;;;0.88;;
4959;SDS011;2495;48.200;11.532;2023-06-22T10:54:48;1.80;;;0.90;;
4959;SDS011;2495;48.200;11.532;2023-06-22T10:59:47;1.30;;;0.50;;
4959;SDS011;2495;48.200;11.532;2023-06-22T11:04:48;1.30;;;0.50;;
4959;SDS011;2495;48.200;11.532;2023-06-22T11:09:50;2.30;;;1.50;;
4959;SDS011;2495;48.200;11.532;2023-06-22T11:20:15;1.30;;;0.50;;
4959;SDS011;2495;48.200;11.532;2023-06-22T11:25:16;1.50;;;0.87;;
4959;SDS011;2495;48.200;11.532;2023-06-22T11:30:25;1.33;;;0.60;;
4959;SDS011;2495;48.200;11.532;2023-06-22T11:35:36;1.37;;;0.50;;
4959;SDS011;2495;48.200;11.532;2023-06-22T11:40:38;1.40;;;0.77;;
4959;SDS011;2495;48.200;11.532;2023-06-22T11:51:05;1.70;;;0.77;;
4959;SDS011;2495;48.200;11.532;2023-06-22T11:56:09;1.40;;;0.70;;
4959;SDS011;2495;48.200;11.532;2023-06-22T12:01:09;1.73;;;1.10;;
4959;SDS011;2495;48.200;11.532;2023-06-22T12:06:25;1.60;;;0.60;;
4959;SDS011;2495;48.200;11.532;2023-06-22T12:11:26;1.40;;;0.60;;
4959;SDS011;2495;48.200;11.532;2023-06-22T12:16:28;1.60;;;0.83;;
4959;SDS011;2495;48.200;11.532;2023-06-22T12:21:29;1.40;;;0.60;;
4959;SDS011;2495;48.200;11.532;2023-06-22T12:26:33;1.40;;;0.57;;
4959;SDS011;2495;48.200;11.532;2023-06-22T12:31:35;1.33;;;0.50;;
4959;SDS011;2495;48.200;11.532;2023-06-22T12:36:37;1.53;;;0.70;;
4959;SDS011;2495;48.200;11.532;2023-06-22T12:41:40;1.50;;;0.70;;
4959;SDS011;2495;48.200;11.532;2023-06-22T12:46:42;1.33;;;0.50;;
4959;SDS011;2495;48.200;11.532;2023-06-22T12:51:43;3.00;;;1.50;;
4959;SDS011;2495;48.200;11.532;2023-06-22T12:56:45;5.83;;;2.83;;
4959;SDS011;2495;48.200;11.532;2023-06-22T13:01:46;1.83;;;1.07;;
4959;SDS011;2495;48.200;11.532;2023-06-22T13:06:47;1.50;;;0.80;;
4959;SDS011;2495;48.200;11.532;2023-06-22T13:11:49;1.40;;;0.60;;
4959;SDS011;2495;48.200;11.532;2023-06-22T13:16:50;7.23;;;1.77;;
4959;SDS011;2495;48.200;11.532;2023-06-22T13:21:52;1.30;;;0.50;;
4959;SDS011;2495;48.200;11.532;2023-06-22T13:26:53;1.50;;;0.90;;
4959;SDS011;2495;48.200;11.532;2023-06-22T13:31:55;1.30;;;0.50;;
4959;SDS011;2495;48.200;11.532;2023-06-22T13:36:56;1.37;;;0.57;;
4959;SDS011;2495;48.200;11.532;2023-06-22T13:41:58;1.37;;;0.60;;
4959;SDS011;2495;48.200;11.532;2023-06-22T13:47:02;2.10;;;1.47;;
4959;SDS011;2495;48.200;11.532;2023-06-22T13:52:01;1.30;;;0.50;;
4959;SDS011;2495;48.200;11.532;2023-06-22T13:57:15;2.07;;;0.90;;
4959;SDS011;2495;48.200;11.532;2023-06-22T14:02:17;2.37;;;1.43;;
4959;SDS011;2495;48.200;11.532;2023-06-22T14:07:21;1.37;;;0.50;;
4959;SDS011;2495;48.200;11.532;2023-06-22T14:33:48;1.50;;;0.70;;
4959;SDS011;2495;48.200;11.532;2023-06-22T14:44:08;1.70;;;0.93;;
4959;SDS011;2495;48.200;11.532;2023-06-22T14:49:18;1.70;;;0.83;;
4959;SDS011;2495;48.200;11.532;2023-06-22T14:54:25;1.63;;;0.73;;
4959;SDS011;2495;48.200;11.532;2023-06-22T14:59:34;1.40;;;0.60;;
4959;SDS011;2495;48.200;11.532;2023-06-22T15:04:36;1.40;;;0.60;;
4959;SDS011;2495;48.200;11.532;2023-06-22T15:09:40;1.37;;;0.50;;
4959;SDS011;2495;48.200;11.532;2023-06-22T15:42:05;1.30;;;0.40;;
4959;SDS011;2495;48.200;11.532;2023-06-22T15:47:15;1.30;;;0.50;;
4959;SDS011;2495;48.200;11.532;2023-06-22T15:52:17;1.60;;;0.70;;
4959;SDS011;2495;48.200;11.532;2023-06-22T15:57:17;1.40;;;0.50;;
4959;SDS011;2495;48.200;11.532;2023-06-22T16:02:19;1.60;;;0.93;;
4959;SDS011;2495;48.200;11.532;2023-06-22T16:07:20;1.50;;;0.70;;
4959;SDS011;2495;48.200;11.532;2023-06-22T16:12:23;2.33;;;0.97;;
4959;SDS011;2495;48.200;11.532;2023-06-22T16:17:24;1.30;;;0.50;;
4959;SDS011;2495;48.200;11.532;2023-06-22T16:22:27;2.03;;;1.23;;
4959;SDS011;2495;48.200;11.532;2023-06-22T16:27:28;1.40;;;0.50;;
4959;SDS011;2495;48.200;11.532;2023-06-22T16:32:30;1.30;;;0.60;;
4959;SDS011;2495;48.200;11.532;2023-06-22T16:37:31;1.40;;;0.70;;
4959;SDS011;2495;48.200;11.532;2023-06-22T16:42:33;1.30;;;0.50;;
4959;SDS011;2495;48.200;11.532;2023-06-22T16:47:34;1.30;;;0.50;;
4959;SDS011;2495;48.200;11.532;2023-06-22T16:52:35;9.77;;;2.27;;
4959;SDS011;2495;48.200;11.532;2023-06-22T16:57:37;1.30;;;0.50;;
4959;SDS011;2495;48.200;11.532;2023-06-22T17:02:41;1.60;;;0.60;;
4959;SDS011;2495;48.200;11.532;2023-06-22T17:07:40;1.50;;;0.77;;
4959;SDS011;2495;48.200;11.532;2023-06-22T17:12:41;1.83;;;1.17;;
4959;SDS011;2495;48.200;11.532;2023-06-22T17:17:43;1.30;;;0.50;;
4959;SDS011;2495;48.200;11.532;2023-06-22T17:22:45;1.50;;;0.80;;
4959;SDS011;2495;48.200;11.532;2023-06-22T17:27:49;2.43;;;1.20;;
4959;SDS011;2495;48.200;11.532;2023-06-22T17:32:50;7.30;;;6.90;;
4959;SDS011;2495;48.200;11.532;2023-06-22T17:37:53;13.60;;;12.90;;
4959;SDS011;2495;48.200;11.532;2023-06-22T17:43:02;20.33;;;19.33;;
4959;SDS011;2495;48.200;11.532;2023-06-22T17:48:04;13.90;;;13.20;;
4959;SDS011;2495;48.200;11.532;2023-06-22T17:53:09;12.03;;;7.60;;
4959;SDS011;2495;48.200;11.532;2023-06-22T17:58:13;8.40;;;7.80;;
4959;SDS011;2495;48.200;11.532;2023-06-22T18:03:17;7.10;;;6.60;;
4959;SDS011;2495;48.200;11.532;2023-06-22T18:08:16;4.90;;;4.60;;
4959;SDS011;2495;48.200;11.532;2023-06-22T18:13:26;5.33;;;5.03;;
4959;SDS011;2495;48.200;11.532;2023-06-22T18:18:21;6.60;;;6.30;;
4959;SDS011;2495;48.200;11.532;2023-06-22T18:23:23;5.57;;;5.27;;
4959;SDS011;2495;48.200;11.532;2023-06-22T18:28:24;8.97;;;8.50;;
4959;SDS011;2495;48.200;11.532;2023-06-22T18:33:26;6.10;;;5.80;;
4959;SDS011;2495;48.200;11.532;2023-06-22T18:38:28;7.90;;;7.50;;
4959;SDS011;2495;48.200;11.532;2023-06-22T18:43:29;6.40;;;6.10;;
4959;SDS011;2495;48.200;11.532;2023-06-22T18:48:31;6.17;;;5.87;;
4959;SDS011;2495;48.200;11.532;2023-06-22T18:53:32;18.60;;;17.70;;
4959;SDS011;2495;48.200;11.532;2023-06-22T18:58:37;23.20;;;22.00;;
4959;SDS011;2495;48.200;11.532;2023-06-22T19:03:38;25.27;;;23.87;;
4959;SDS011;2495;48.200;11.532;2023-06-22T19:14:19;25.87;;;24.47;;
4959;SDS011;2495;48.200;11.532;2023-06-22T19:19:20;25.70;;;24.30;;
4959;SDS011;2495;48.200;11.532;2023-06-22T19:24:31;20.30;;;19.20;;
4959;SDS011;2495;48.200;11.532;2023-06-22T19:29:32;25.23;;;23.93;;
4959;SDS011;2495;48.200;11.532;2023-06-22T19:34:34;23.67;;;22.00;;
4959;SDS011;2495;48.200;11.532;2023-06-22T19:39:36;25.30;;;24.00;;
4959;SDS011;2495;48.200;11.532;2023-06-22T19:44:37;25.42;;;23.73;;
4959;SDS011;2495;48.200;11.532;2023-06-22T19:49:39;29.73;;;27.57;;
4959;SDS011;2495;48.200;11.532;2023-06-22T19:54:40;28.87;;;26.73;;
4959;SDS011;2495;48.200;11.532;2023-06-22T19:59:42;30.53;;;28.23;;
4959;SDS011;2495;48.200;11.532;2023-06-22T20:04:46;30.00;;;27.70;;
4959;SDS011;2495;48.200;11.532;2023-06-22T20:10:04;30.20;;;27.80;;
4959;SDS011;2495;48.200;11.532;2023-06-22T20:15:27;30.07;;;27.70;;
4959;SDS011;2495;48.200;11.532;2023-06-22T20:49:24;33.10;;;29.97;;
4959;SDS011;2495;48.200;11.532;2023-06-22T22:34:53;25.80;;;23.50;;
4959;SDS011;2495;48.200;11.532;2023-06-22T22:39:55;35.30;;;32.30;;
4959;SDS011;2495;48.200;11.532;2023-06-22T22:44:57;30.73;;;28.03;;
4959;SDS011;2495;48.200;11.532;2023-06-22T22:49:59;30.20;;;27.50;;
4959;SDS011;2495;48.200;11.532;2023-06-22T22:55:01;30.60;;;27.80;;
4959;SDS011;2495;48.200;11.532;2023-06-22T23:00:05;30.67;;;27.87;;
4959;SDS011;2495;48.200;11.532;2023-06-22T23:05:14;29.70;;;27.00;;
4959;SDS011;2495;48.200;11.532;2023-06-22T23:10:15;30.67;;;27.87;;
4959;SDS011;2495;48.200;11.532;2023-06-22T23:15:16;30.67;;;27.87;;
4959;SDS011;2495;48.200;11.532;2023-06-22T23:20:20;30.17;;;27.47;;
4959;SDS011;2495;48.200;11.532;2023-06-22T23:25:22;30.50;;;27.70;;
4959;SDS011;2495;48.200;11.532;2023-06-22T23:30:23;32.43;;;29.53;;
4959;SDS011;2495;48.200;11.532;2023-06-22T23:35:24;30.40;;;27.70;;
4959;SDS011;2495;48.200;11.532;2023-06-22T23:40:26;30.70;;;28.00;;
4959;SDS011;2495;48.200;11.532;2023-06-22T23:45:28;30.00;;;27.30;;
4959;SDS011;2495;48.200;11.532;2023-06-22T23:50:29;26.60;;;24.10;;
4959;SDS011;2495;48.200;11.532;2023-06-22T23:55:30;30.97;;;28.17;;
